createdAt,value
2022-08-18T00:01:44.836Z,15.88
2022-08-18T00:04:24.303Z,15.77
2022-08-18T00:07:00.560Z,14.02
2022-08-18T00:09:31.982Z,12.75
2022-08-18T00:12:08.921Z,13.40
2022-08-18T00:14:36.547Z,13.80
2022-08-18T00:17:03.934Z,14.75
2022-08-18T00:19:46.182Z,14.65
2022-08-18T00:22:20.652Z,13.60
2022-08-18T00:24:54.523Z,12.43
2022-08-18T00:27:31.470Z,16.60
2022-08-18T00:30:05.353Z,12.93
2022-08-18T00:32:51.128Z,13.57
2022-08-18T00:35:34.940Z,12.70
2022-08-18T00:38:08.492Z,18.63
2022-08-18T00:40:54.454Z,13.98
2022-08-18T00:43:43.310Z,15.25
2022-08-18T00:46:29.104Z,14.93
2022-08-18T00:48:58.043Z,14.55
2022-08-18T00:51:48.328Z,14.38
2022-08-18T00:54:27.482Z,14.00
2022-08-18T00:57:06.330Z,14.98
2022-08-18T00:59:45.582Z,15.40
2022-08-18T01:02:46.780Z,14.38
2022-08-18T01:05:30.597Z,17.45
2022-08-18T01:07:58.072Z,13.65
2022-08-18T01:10:25.376Z,14.00
2022-08-18T01:12:59.425Z,16.80
2022-08-18T01:15:30.496Z,14.57
2022-08-18T01:18:28.261Z,13.60
2022-08-18T01:21:35.104Z,13.35
2022-08-18T01:24:10.382Z,15.65
2022-08-18T01:26:46.582Z,16.02
2022-08-18T01:29:18.671Z,17.02
2022-08-18T01:31:56.504Z,15.77
2022-08-18T01:34:28.563Z,15.13
2022-08-18T01:36:57.452Z,15.90
2022-08-18T01:41:23.093Z,14.07
2022-08-18T01:42:18.086Z,14.40
2022-08-18T01:44:51.239Z,14.18
2022-08-18T01:47:21.028Z,16.88
2022-08-18T01:49:48.338Z,20.48
2022-08-18T01:52:21.250Z,16.58
2022-08-18T01:54:51.619Z,17.42
2022-08-18T01:57:22.238Z,18.25
2022-08-18T01:59:49.603Z,14.52
2022-08-18T02:02:28.222Z,15.35
2022-08-18T02:05:04.905Z,16.90
2022-08-18T02:07:36.195Z,14.80
2022-08-18T02:10:11.743Z,15.10
2022-08-18T02:12:41.847Z,16.05
2022-08-18T02:15:10.698Z,16.98
2022-08-18T02:17:42.917Z,17.48
2022-08-18T02:20:18.004Z,17.30
2022-08-18T02:22:47.991Z,16.50
2022-08-18T02:25:18.206Z,19.60
2022-08-18T02:27:46.813Z,22.77
2022-08-18T02:30:19.465Z,16.60
2022-08-18T02:32:46.823Z,17.52
2022-08-18T02:35:14.479Z,18.23
2022-08-18T02:37:43.472Z,19.85
2022-08-18T02:40:14.787Z,18.73
2022-08-18T02:42:47.335Z,20.83
2022-08-18T02:45:15.102Z,17.77
2022-08-18T02:47:44.317Z,19.40
2022-08-18T02:50:14.187Z,19.60
2022-08-18T02:52:41.529Z,17.17
2022-08-18T02:55:10.667Z,17.58
2022-08-18T02:57:46.001Z,17.60
2022-08-18T03:00:19.193Z,16.60
2022-08-18T03:02:51.628Z,19.35
2022-08-18T03:05:20.388Z,15.68
2022-08-18T03:07:47.611Z,18.38
2022-08-18T03:10:33.224Z,17.08
2022-08-18T03:13:01.658Z,21.83
2022-08-18T03:15:28.833Z,18.13
2022-08-18T03:17:56.324Z,19.40
2022-08-18T03:20:30.144Z,16.80
2022-08-18T03:23:05.838Z,17.75
2022-08-18T03:25:44.344Z,18.45
2022-08-18T03:28:11.588Z,16.75
2022-08-18T03:30:38.833Z,18.02
2022-08-18T03:33:05.942Z,17.92
2022-08-18T03:35:37.117Z,23.43
2022-08-18T03:38:05.623Z,19.50
2022-08-18T03:40:33.466Z,20.20
2022-08-18T03:45:54.895Z,16.70
2022-08-18T03:48:22.376Z,17.08
2022-08-18T03:50:49.631Z,17.02
2022-08-18T03:53:16.643Z,17.30
2022-08-18T03:55:43.789Z,16.33
2022-08-18T03:58:14.963Z,21.33
2022-08-18T04:00:42.448Z,21.67
2022-08-18T04:03:09.802Z,22.08
2022-08-18T04:05:41.233Z,20.45
2022-08-18T04:08:08.469Z,18.10
2022-08-18T04:10:35.753Z,18.42
2022-08-18T04:13:05.649Z,16.88
2022-08-18T04:15:33.825Z,19.42
2022-08-18T04:18:08.670Z,17.52
2022-08-18T04:20:36.289Z,20.52
2022-08-18T04:23:03.409Z,18.70
2022-08-18T04:25:33.468Z,16.80
2022-08-18T04:28:02.473Z,18.23
2022-08-18T04:30:29.501Z,17.77
2022-08-18T04:32:56.700Z,22.03
2022-08-18T04:35:24.370Z,19.48
2022-08-18T04:37:51.749Z,18.08
2022-08-18T04:40:22.932Z,18.48
2022-08-18T04:42:52.150Z,18.88
2022-08-18T04:45:19.196Z,19.00
2022-08-18T04:47:46.270Z,17.70
2022-08-18T04:50:13.356Z,20.48
2022-08-18T04:52:59.028Z,20.63
2022-08-18T04:55:26.085Z,20.55
2022-08-18T04:57:53.301Z,19.65
2022-08-18T05:00:20.864Z,20.90
2022-08-18T05:02:49.444Z,20.98
2022-08-18T05:05:16.585Z,19.65
2022-08-18T05:07:47.668Z,19.05
2022-08-18T05:10:17.958Z,19.83
2022-08-18T05:12:48.840Z,18.95
2022-08-18T05:15:17.762Z,18.35
2022-08-18T05:17:45.483Z,21.40
2022-08-18T05:20:17.510Z,18.92
2022-08-18T05:25:13.557Z,21.52
2022-08-18T05:30:12.110Z,18.98
2022-08-18T05:32:50.080Z,18.30
2022-08-18T05:39:04.727Z,22.80
2022-08-18T05:41:39.976Z,19.70
2022-08-18T05:44:15.537Z,19.67
2022-08-18T05:46:56.209Z,21.15
2022-08-18T05:49:27.634Z,23.20
2022-08-18T05:52:07.786Z,26.98
2022-08-18T05:55:10.051Z,22.30
2022-08-18T05:58:01.998Z,20.05
2022-08-18T06:00:33.030Z,24.60
2022-08-18T06:03:23.324Z,21.80
2022-08-18T06:06:07.660Z,19.25
2022-08-18T06:08:59.188Z,26.65
2022-08-18T06:11:26.298Z,23.10
2022-08-18T06:13:54.941Z,22.08
2022-08-18T06:16:57.554Z,22.30
2022-08-18T06:20:28.443Z,22.38
2022-08-18T06:23:12.661Z,23.03
2022-08-18T06:26:25.809Z,20.38
2022-08-18T06:29:38.009Z,21.48
2022-08-18T06:32:37.591Z,20.67
2022-08-18T06:35:45.861Z,19.10
2022-08-18T06:38:38.972Z,18.55
2022-08-18T06:41:41.593Z,20.65
2022-08-18T06:44:42.877Z,19.92
2022-08-18T06:47:53.141Z,22.83
2022-08-18T06:50:36.496Z,22.77
2022-08-18T06:53:27.482Z,20.27
2022-08-18T06:55:56.329Z,18.67
2022-08-18T06:58:31.449Z,20.08
2022-08-18T07:01:06.873Z,19.20
2022-08-18T07:03:36.902Z,20.02
2022-08-18T07:06:22.279Z,19.85
2022-08-18T07:09:24.606Z,21.73
2022-08-18T07:12:15.497Z,19.35
2022-08-18T07:14:50.773Z,19.10
2022-08-18T07:17:52.815Z,20.08
2022-08-18T07:20:25.372Z,19.92
2022-08-18T07:23:08.083Z,16.52
2022-08-18T07:25:46.142Z,20.17
2022-08-18T07:28:45.215Z,18.70
2022-08-18T07:31:48.261Z,18.17
2022-08-18T07:34:37.248Z,17.33
2022-08-18T07:37:31.547Z,18.45
2022-08-18T07:40:19.813Z,19.38
2022-08-18T07:43:39.327Z,19.05
2022-08-18T07:46:50.952Z,19.13
2022-08-18T07:49:26.514Z,18.20
2022-08-18T07:52:44.098Z,17.83
2022-08-18T07:55:36.250Z,18.35
2022-08-18T07:58:39.328Z,17.55
2022-08-18T08:01:34.066Z,18.00
2022-08-18T08:04:43.746Z,21.80
2022-08-18T08:07:38.239Z,17.15
2022-08-18T08:10:26.831Z,17.13
2022-08-18T08:13:51.445Z,21.60
2022-08-18T08:16:36.799Z,21.20
2022-08-18T08:20:08.570Z,18.55
2022-08-18T08:23:17.507Z,19.35
2022-08-18T08:26:19.517Z,18.98
2022-08-18T08:29:48.966Z,18.63
2022-08-18T08:32:34.323Z,20.05
2022-08-18T08:35:48.745Z,19.17
2022-08-18T08:38:42.197Z,23.17
2022-08-18T08:41:28.445Z,18.27
2022-08-18T08:44:33.053Z,23.17
2022-08-18T08:47:34.554Z,23.58
2022-08-18T08:50:27.087Z,22.33
2022-08-18T08:53:12.586Z,17.98
2022-08-18T08:56:00.122Z,20.50
2022-08-18T08:58:59.149Z,22.80
2022-08-18T09:01:58.645Z,21.67
2022-08-18T09:05:07.640Z,21.45
2022-08-18T09:08:15.395Z,20.92
2022-08-18T09:11:20.903Z,21.50
2022-08-18T09:14:41.118Z,17.75
2022-08-18T09:17:56.011Z,21.88
2022-08-18T09:21:16.119Z,19.50
2022-08-18T09:23:53.501Z,19.10
2022-08-18T09:26:50.038Z,23.20
2022-08-18T09:30:00.890Z,19.83
2022-08-18T09:32:29.288Z,21.77
2022-08-18T09:35:26.979Z,23.02
2022-08-18T09:38:35.775Z,19.45
2022-08-18T09:41:34.187Z,26.65
2022-08-18T09:44:18.025Z,20.63
2022-08-18T09:47:01.249Z,27.67
2022-08-18T09:49:28.257Z,19.33
2022-08-18T09:55:18.218Z,19.67
2022-08-18T09:57:48.060Z,23.10
2022-08-18T10:00:33.513Z,20.77
2022-08-18T10:03:13.751Z,18.48
2022-08-18T10:06:14.883Z,18.35
2022-08-18T10:09:36.686Z,19.63
2022-08-18T10:12:42.510Z,21.08
2022-08-18T10:15:33.330Z,17.55
2022-08-18T10:18:37.616Z,21.73
2022-08-18T10:21:28.076Z,16.52
2022-08-18T10:26:57.397Z,17.00
2022-08-18T10:29:30.026Z,15.63
2022-08-18T10:31:57.495Z,18.63
2022-08-18T10:34:52.077Z,17.90
2022-08-18T10:37:50.702Z,16.67
2022-08-18T10:40:26.513Z,17.50
2022-08-18T10:43:45.444Z,16.40
2022-08-18T10:46:25.088Z,14.57
2022-08-18T10:49:13.391Z,15.35
2022-08-18T10:52:05.723Z,18.08
2022-08-18T10:55:14.415Z,14.70
2022-08-18T10:58:43.189Z,13.93
2022-08-18T11:01:40.730Z,14.15
2022-08-18T11:04:36.964Z,14.45
2022-08-18T11:07:22.075Z,15.07
2022-08-18T11:10:12.959Z,14.63
2022-08-18T11:13:37.777Z,14.93
2022-08-18T11:16:41.502Z,18.90
2022-08-18T11:19:17.120Z,14.80
2022-08-18T11:21:52.643Z,13.90
2022-08-18T11:24:35.498Z,17.35
2022-08-18T11:27:32.893Z,240.43
2022-08-18T11:30:05.842Z,267.75
2022-08-18T11:35:51.906Z,320.00
2022-08-18T11:38:21.086Z,315.55
2022-08-18T11:41:13.774Z,333.50
2022-08-18T11:43:47.450Z,311.25
2022-08-18T11:46:28.324Z,320.48
2022-08-18T11:49:15.718Z,339.65
2022-08-18T11:52:19.709Z,344.90
2022-08-18T11:55:14.632Z,333.38
2022-08-18T11:58:00.123Z,317.08
2022-08-18T12:00:48.738Z,328.85
2022-08-18T12:06:20.676Z,310.85
2022-08-18T12:09:36.942Z,306.20
2022-08-18T12:12:30.512Z,283.85
2022-08-18T12:15:22.707Z,273.27
2022-08-18T12:17:53.716Z,275.38
2022-08-18T12:20:23.131Z,281.13
2022-08-18T12:22:52.013Z,276.75
2022-08-18T12:25:25.348Z,258.45
2022-08-18T12:27:54.533Z,239.80
2022-08-18T12:30:21.745Z,229.68
2022-08-18T12:35:29.091Z,257.73
2022-08-18T12:38:00.483Z,236.32
2022-08-18T12:40:33.609Z,221.95
2022-08-18T12:43:00.768Z,223.10
2022-08-18T12:45:31.167Z,245.85
2022-08-18T12:48:04.095Z,220.23
2022-08-18T12:50:39.190Z,221.57
2022-08-18T12:53:17.678Z,213.48
2022-08-18T12:55:56.274Z,222.57
2022-08-18T12:58:23.293Z,224.07
2022-08-18T13:00:51.509Z,217.25
2022-08-18T13:03:19.438Z,242.73
2022-08-18T13:05:47.739Z,199.07
2022-08-18T13:08:30.311Z,200.57
2022-08-18T13:11:14.844Z,203.05
2022-08-18T13:13:53.285Z,200.07
2022-08-18T13:16:38.834Z,198.90
2022-08-18T13:19:10.748Z,216.75
2022-08-18T13:21:41.427Z,204.90
2022-08-18T13:24:12.766Z,204.50
2022-08-18T13:26:46.853Z,181.75
2022-08-18T13:29:18.535Z,187.23
2022-08-18T13:31:55.588Z,198.52
2022-08-18T13:34:30.008Z,184.80
2022-08-18T13:36:57.838Z,184.50
2022-08-18T13:39:33.823Z,181.25
2022-08-18T13:42:26.866Z,175.73
2022-08-18T13:44:53.181Z,189.07
2022-08-18T13:47:22.624Z,195.07
2022-08-18T13:49:58.130Z,184.07
2022-08-18T13:52:34.493Z,183.27
2022-08-18T13:55:08.033Z,190.60
2022-08-18T13:57:38.620Z,187.60
2022-08-18T14:00:18.245Z,194.60
2022-08-18T14:02:53.909Z,208.85
2022-08-18T14:05:22.165Z,206.05
2022-08-18T14:08:05.529Z,193.32
2022-08-18T14:10:33.406Z,197.43
2022-08-18T14:13:20.325Z,187.10
2022-08-18T14:15:55.997Z,202.18
2022-08-18T14:18:29.220Z,181.85
2022-08-18T14:21:23.248Z,182.15
2022-08-18T14:24:10.215Z,193.60
2022-08-18T14:26:51.021Z,201.55
2022-08-18T14:29:46.294Z,199.60
2022-08-18T14:32:07.982Z,185.18
2022-08-18T14:34:36.952Z,182.50
2022-08-18T14:37:04.225Z,173.23
2022-08-18T14:39:31.329Z,181.38
2022-08-18T14:44:31.882Z,183.80
2022-08-18T14:46:59.899Z,179.90
2022-08-18T14:49:29.257Z,163.77
2022-08-18T14:52:02.245Z,175.57
2022-08-18T14:54:32.379Z,173.02
2022-08-18T14:57:02.655Z,177.18
2022-08-18T14:59:37.599Z,161.85
2022-08-18T15:02:13.107Z,168.77
2022-08-18T15:04:52.917Z,167.63
2022-08-18T15:07:26.257Z,170.77
2022-08-18T15:10:15.188Z,91.50
2022-08-18T15:12:42.035Z,84.72
2022-08-18T15:15:17.714Z,81.35
2022-08-18T15:17:51.484Z,91.13
2022-08-18T15:20:29.486Z,81.28
2022-08-18T15:23:23.442Z,91.10
2022-08-18T15:25:56.541Z,90.47
2022-08-18T15:28:27.190Z,82.80
2022-08-18T15:33:42.123Z,77.95
2022-08-18T15:38:43.583Z,80.78
2022-08-18T15:41:28.432Z,78.82
2022-08-18T15:43:58.592Z,79.10
2022-08-18T15:48:54.744Z,78.47
2022-08-18T15:51:21.850Z,76.93
2022-08-18T15:53:49.062Z,77.70
2022-08-18T15:56:26.021Z,79.43
2022-08-18T15:58:54.021Z,76.80
2022-08-18T16:01:30.595Z,77.18
2022-08-18T16:04:01.424Z,370.27
2022-08-18T16:06:32.384Z,357.58
2022-08-18T16:09:01.907Z,403.70
2022-08-18T16:11:30.558Z,390.40
2022-08-18T16:13:59.295Z,401.40
2022-08-18T16:16:29.124Z,342.88
2022-08-18T16:19:06.744Z,420.27
2022-08-18T16:21:37.950Z,422.33
2022-08-18T16:24:05.927Z,428.30
2022-08-18T16:26:33.111Z,551.65
2022-08-18T16:29:01.996Z,491.65
2022-08-18T16:31:29.779Z,264.33
2022-08-18T16:33:59.069Z,261.55
2022-08-18T16:36:26.515Z,377.48
2022-08-18T16:41:26.825Z,241.30
2022-08-18T16:43:54.579Z,252.02
2022-08-18T16:46:27.440Z,12.20
2022-08-18T16:48:58.666Z,10.27
2022-08-18T16:51:29.371Z,14.48
2022-08-18T16:53:56.860Z,13.35
2022-08-18T16:56:31.180Z,13.98
2022-08-18T16:59:16.929Z,10.38
2022-08-18T17:02:02.796Z,9.85
2022-08-18T17:04:35.828Z,13.63
2022-08-18T17:07:06.675Z,11.07
2022-08-18T17:09:36.014Z,12.57
2022-08-18T17:12:05.199Z,11.30
2022-08-18T17:14:33.619Z,13.73
2022-08-18T17:17:01.437Z,11.23
2022-08-18T17:19:35.268Z,10.82
2022-08-18T17:22:06.385Z,12.13
2022-08-18T17:24:33.603Z,11.80
2022-08-18T17:30:11.557Z,12.65
2022-08-18T17:33:08.566Z,13.60
2022-08-18T17:35:44.478Z,12.20
2022-08-18T17:38:34.314Z,11.55
2022-08-18T17:41:05.186Z,13.00
2022-08-18T17:46:27.981Z,14.32
2022-08-18T17:50:27.287Z,14.82
2022-08-18T17:53:00.517Z,13.90
2022-08-18T17:55:53.585Z,16.70
2022-08-18T17:58:46.637Z,17.42
2022-08-18T18:01:15.439Z,15.52
2022-08-18T18:03:44.868Z,14.15
2022-08-18T18:06:35.218Z,15.95
2022-08-18T18:09:28.516Z,19.50
2022-08-18T18:11:55.918Z,17.58
2022-08-18T18:14:39.598Z,16.35
2022-08-18T18:17:25.119Z,17.45
2022-08-18T18:20:15.635Z,19.40
2022-08-18T18:22:45.802Z,26.83
2022-08-18T18:25:34.624Z,29.40
2022-08-18T18:30:29.987Z,42.67
2022-08-18T18:33:13.536Z,48.55
2022-08-18T18:35:59.581Z,42.53
2022-08-18T18:38:49.047Z,39.78
2022-08-18T18:41:28.375Z,53.47
2022-08-18T18:44:10.421Z,34.33
2022-08-18T18:47:07.437Z,39.80
2022-08-18T18:50:27.659Z,46.40
2022-08-18T18:54:08.428Z,56.30
2022-08-18T18:56:49.518Z,53.13
2022-08-18T19:00:18.173Z,30.92
2022-08-18T19:03:23.221Z,15.32
2022-08-18T19:06:13.197Z,15.85
2022-08-18T19:09:20.811Z,16.38
2022-08-18T19:12:23.371Z,17.67
2022-08-18T19:15:15.277Z,459.58
2022-08-18T19:18:33.835Z,438.38
2022-08-18T19:22:03.699Z,305.05
2022-08-18T19:24:25.549Z,232.40
2022-08-18T19:27:03.030Z,168.25
2022-08-18T19:29:43.510Z,141.97
2022-08-18T19:32:36.808Z,155.98
2022-08-18T19:35:13.647Z,186.50
2022-08-18T19:38:04.269Z,204.27
2022-08-18T19:40:51.866Z,216.90
2022-08-18T19:43:36.023Z,236.30
2022-08-18T19:46:20.957Z,177.18
2022-08-18T19:49:42.719Z,167.40
2022-08-18T19:53:12.466Z,59.20
2022-08-18T19:56:10.353Z,41.05
2022-08-18T19:59:40.400Z,31.80
2022-08-18T20:03:14.712Z,28.73
2022-08-18T20:06:33.643Z,31.15
2022-08-18T20:09:42.776Z,31.15
2022-08-18T20:13:20.089Z,35.53
2022-08-18T20:16:02.074Z,35.30
2022-08-18T20:18:50.241Z,31.73
2022-08-18T20:21:17.369Z,34.17
2022-08-18T20:23:56.806Z,125.65
2022-08-18T20:26:38.734Z,223.15
2022-08-18T20:29:39.723Z,131.57
2022-08-18T20:32:32.040Z,23.08
2022-08-18T20:35:32.562Z,19.02
2022-08-18T20:38:38.794Z,22.35
2022-08-18T20:41:28.739Z,19.52
2022-08-18T20:44:29.321Z,17.50
2022-08-18T20:47:27.334Z,17.83
2022-08-18T20:50:31.498Z,17.42
2022-08-18T20:54:02.897Z,19.10
2022-08-18T20:56:59.168Z,21.35
2022-08-18T21:00:13.352Z,19.33
2022-08-18T21:02:49.758Z,20.60
2022-08-18T21:05:39.197Z,20.10
2022-08-18T21:08:16.539Z,21.10
2022-08-18T21:10:59.526Z,20.25
2022-08-18T21:13:41.574Z,23.25
2022-08-18T21:16:38.149Z,24.17
2022-08-18T21:19:25.991Z,21.27
2022-08-18T21:22:01.440Z,22.75
2022-08-18T21:24:45.196Z,42.58
2022-08-18T21:27:32.514Z,37.53
2022-08-18T21:30:15.590Z,32.35
2022-08-18T21:32:47.144Z,28.75
2022-08-18T21:35:38.249Z,27.73
2022-08-18T21:38:13.219Z,24.58
2022-08-18T21:40:50.844Z,22.38
2022-08-18T21:43:49.532Z,22.33
2022-08-18T21:46:31.134Z,20.48
2022-08-18T21:49:04.112Z,21.33
2022-08-18T21:51:48.743Z,19.77
2022-08-18T21:54:30.248Z,23.23
2022-08-18T21:57:24.784Z,23.58
2022-08-18T22:00:29.755Z,21.52
2022-08-18T22:03:24.888Z,21.63
2022-08-18T22:06:21.833Z,21.20
2022-08-18T22:09:42.446Z,24.23
2022-08-18T22:12:53.561Z,21.48
2022-08-18T22:15:48.730Z,18.50
2022-08-18T22:18:18.690Z,19.50
2022-08-18T22:20:59.786Z,17.63
2022-08-18T22:24:05.959Z,24.90
2022-08-18T22:26:38.464Z,21.50
2022-08-18T22:29:33.325Z,23.48
2022-08-18T22:32:04.094Z,24.88
2022-08-18T22:34:34.624Z,22.98
2022-08-18T22:37:19.940Z,21.10
2022-08-18T22:40:12.495Z,21.38
2022-08-18T22:42:40.725Z,23.30
2022-08-18T22:45:13.681Z,20.50
2022-08-18T22:47:43.656Z,22.90
2022-08-18T22:50:14.367Z,22.50
2022-08-18T22:52:49.760Z,23.02
2022-08-18T22:55:21.830Z,24.15
2022-08-18T22:57:55.654Z,28.02
2022-08-18T23:00:25.355Z,22.77
2022-08-18T23:02:55.146Z,26.73
2022-08-18T23:05:23.372Z,24.42
2022-08-18T23:07:50.983Z,25.98
2022-08-18T23:10:18.732Z,26.23
2022-08-18T23:12:49.324Z,24.55
2022-08-18T23:15:19.199Z,25.88
2022-08-18T23:17:46.449Z,26.88
2022-08-18T23:20:18.352Z,30.08
2022-08-18T23:22:48.273Z,27.98
2022-08-18T23:25:15.853Z,23.95
2022-08-18T23:27:43.351Z,26.40
2022-08-18T23:30:11.262Z,25.17
2022-08-18T23:35:06.180Z,25.70
2022-08-18T23:40:00.639Z,26.60
2022-08-18T23:42:28.125Z,25.08
2022-08-18T23:45:04.400Z,22.85
2022-08-18T23:47:31.888Z,25.55
2022-08-18T23:49:59.585Z,25.10
2022-08-18T23:52:26.644Z,24.60
2022-08-18T23:54:54.239Z,22.55
2022-08-18T23:57:21.368Z,23.23
2022-08-18T23:59:48.715Z,23.98
